Time;durP1;ratioP1;P1;durP2;ratioP2;P2;SDS_P1;SDS_P2;PMS_P1;PMS_P2;Temp;Humidity;BMP_temperature;BMP_pressure;BME280_temperature;BME280_humidity;BME280_pressure;Samples;Min_cycle;Max_cycle;Signal;HPM_P1;HPM_P2
2022/04/26 03:37:47;;;;;;;10.20;8.20;;;13.10;50.50;;;;;;5116791;28;20443;-76
2022/04/26 03:40:12;;;;;;;10.25;7.35;;;13.00;50.50;;;;;;5121377;28;20020;-77
2022/04/26 03:42:38;;;;;;;9.02;6.55;;;13.00;50.40;;;;;;5115359;28;20081;-77
2022/04/26 03:45:04;;;;;;;8.15;6.10;;;13.00;50.30;;;;;;5115610;28;20020;-78
2022/04/26 03:47:30;;;;;;;7.53;5.45;;;13.00;50.40;;;;;;5113957;28;20469;-77
2022/04/26 03:49:56;;;;;;;14.18;7.50;;;12.90;50.30;;;;;;5115122;28;20121;-78
2022/04/26 03:52:21;;;;;;;10.00;7.07;;;12.90;50.50;;;;;;5113659;28;20042;-75
2022/04/26 03:54:47;;;;;;;10.15;6.82;;;12.90;50.50;;;;;;5114939;28;20020;-77
2022/04/26 03:57:13;;;;;;;10.52;7.32;;;12.80;50.50;;;;;;5114068;28;20023;-76
2022/04/26 03:59:39;;;;;;;8.88;6.68;;;12.80;50.70;;;;;;5113587;28;20047;-79
2022/04/26 04:02:05;;;;;;;8.60;6.75;;;12.70;50.60;;;;;;5114852;28;20030;-78
2022/04/26 04:04:31;;;;;;;12.32;6.70;;;12.70;50.70;;;;;;5114902;27;20041;-79
2022/04/26 04:06:56;;;;;;;16.48;5.90;;;12.60;50.80;;;;;;5115038;28;20016;-77
2022/04/26 04:09:22;;;;;;;6.85;5.30;;;12.50;50.80;;;;;;5114816;28;20015;-77
2022/04/26 04:11:48;;;;;;;8.38;6.13;;;12.50;50.90;;;;;;5113481;28;20023;-76
2022/04/26 04:14:16;;;;;;;8.75;6.18;;;12.40;51.00;;;;;;5114486;28;20439;-76
2022/04/26 04:16:42;;;;;;;7.30;5.93;;;12.40;51.10;;;;;;5114520;28;20385;-80
2022/04/26 04:19:20;;;;;;;10.18;7.53;;;12.40;51.30;;;;;;5114700;28;20019;-76
2022/04/26 04:21:47;;;;;;;10.60;7.35;;;12.30;51.80;;;;;;5113287;28;20027;-79
2022/04/26 04:24:14;;;;;;;8.88;6.63;;;12.40;51.70;;;;;;5114395;28;20026;-79
2022/04/26 04:26:41;;;;;;;10.32;7.15;;;12.40;51.80;;;;;;5109794;28;20055;-78
2022/04/26 04:29:07;;;;;;;9.10;6.80;;;12.40;51.80;;;;;;5112904;28;20449;-78
2022/04/26 04:31:33;;;;;;;10.15;7.45;;;12.50;51.90;;;;;;5113090;28;20465;-78
2022/04/26 04:34:01;;;;;;;8.98;6.75;;;12.60;51.90;;;;;;5110171;28;20042;-77
2022/04/26 04:36:27;;;;;;;12.07;8.00;;;12.70;51.90;;;;;;5114195;27;20033;-76
2022/04/26 04:38:53;;;;;;;12.77;7.22;;;12.70;51.70;;;;;;5114265;28;20088;-75
2022/04/26 04:41:19;;;;;;;10.00;7.30;;;12.80;51.60;;;;;;5113982;28;20039;-79
2022/04/26 04:43:45;;;;;;;9.68;6.30;;;12.90;51.40;;;;;;5114148;28;20023;-77
2022/04/26 04:46:11;;;;;;;9.85;6.75;;;12.90;51.20;;;;;;5112649;28;20019;-78
2022/04/26 04:48:36;;;;;;;10.13;6.40;;;12.90;51.10;;;;;;5113953;28;20023;-79
2022/04/26 04:51:02;;;;;;;9.68;6.40;;;12.90;51.10;;;;;;5113995;28;20469;-79
2022/04/26 04:53:28;;;;;;;8.80;6.30;;;12.90;51.00;;;;;;5112585;28;20016;-77
2022/04/26 04:55:54;;;;;;;10.23;6.68;;;12.90;51.00;;;;;;5114062;28;20023;-78
2022/04/26 04:58:20;;;;;;;8.07;6.32;;;13.00;50.90;;;;;;5097094;28;20030;-77
2022/04/26 05:00:45;;;;;;;11.23;5.97;;;13.00;50.80;;;;;;5113608;28;20131;-79
2022/04/26 05:03:11;;;;;;;8.48;5.05;;;13.00;50.70;;;;;;5112401;28;20126;-76
2022/04/26 05:05:37;;;;;;;7.97;5.72;;;13.00;50.70;;;;;;5112651;28;20030;-79
2022/04/26 05:08:03;;;;;;;8.90;6.13;;;13.00;50.80;;;;;;5112462;28;20023;-77
2022/04/26 05:10:33;;;;;;;9.18;5.82;;;13.10;50.80;;;;;;5113696;28;20030;-79
2022/04/26 05:12:59;;;;;;;8.70;5.57;;;13.10;50.70;;;;;;5113734;28;20027;-76
2022/04/26 05:15:25;;;;;;;8.60;5.93;;;13.20;50.90;;;;;;5113541;28;20024;-77
2022/04/26 05:17:52;;;;;;;30.65;6.70;;;13.30;51.00;;;;;;5113437;28;20019;-79
2022/04/26 05:20:17;;;;;;;22.15;7.18;;;13.30;50.90;;;;;;5113534;28;20023;-76
2022/04/26 05:25:27;;;;;;;13.13;5.53;;;13.60;51.00;;;;;;5113570;28;20026;-79
2022/04/26 05:27:53;;;;;;;13.73;5.90;;;13.80;50.90;;;;;;5113450;28;20027;-77
2022/04/26 05:30:19;;;;;;;8.57;5.13;;;14.00;50.60;;;;;;5112093;28;20110;-78
2022/04/26 05:32:44;;;;;;;8.25;5.50;;;14.10;50.30;;;;;;5098701;28;20024;-76
2022/04/26 05:35:11;;;;;;;8.73;5.30;;;14.30;50.00;;;;;;5111990;28;20056;-78
2022/04/26 05:37:37;;;;;;;6.85;4.97;;;14.40;49.70;;;;;;5109484;28;20500;-77
2022/04/26 05:40:03;;;;;;;6.95;5.20;;;14.60;49.40;;;;;;5110809;28;20028;-77
2022/04/26 05:42:30;;;;;;;11.27;5.47;;;14.70;49.00;;;;;;5113158;28;20520;-76
2022/04/26 05:44:58;;;;;;;10.25;5.72;;;14.80;48.50;;;;;;5113369;28;20461;-77
2022/04/26 05:47:24;;;;;;;13.75;7.22;;;15.00;48.20;;;;;;5113191;28;20099;-78
2022/04/26 05:49:50;;;;;;;11.13;6.72;;;15.10;48.00;;;;;;5113100;28;20108;-79
2022/04/26 05:52:16;;;;;;;15.38;6.43;;;15.20;47.70;;;;;;5111431;28;20479;-79
2022/04/26 05:54:42;;;;;;;10.45;6.82;;;15.40;47.60;;;;;;5113242;28;20034;-76
2022/04/26 05:57:09;;;;;;;11.27;6.75;;;15.50;47.20;;;;;;5111828;28;20032;-77
2022/04/26 05:59:34;;;;;;;15.20;7.28;;;15.60;46.90;;;;;;5112943;28;20047;-80
2022/04/26 06:02:01;;;;;;;11.75;6.20;;;15.70;46.80;;;;;;5113098;28;20081;-78
2022/04/26 06:04:26;;;;;;;8.23;5.40;;;15.80;46.20;;;;;;5111287;28;20042;-77
2022/04/26 06:06:52;;;;;;;9.52;5.68;;;15.90;45.80;;;;;;5113024;28;20095;-78
2022/04/26 06:09:19;;;;;;;8.07;5.15;;;16.00;45.20;;;;;;5111659;28;20028;-79
2022/04/26 06:11:46;;;;;;;5.95;4.78;;;16.10;44.30;;;;;;5113108;28;20027;-79
2022/04/26 06:14:11;;;;;;;6.90;3.75;;;16.10;43.70;;;;;;5113046;28;20047;-78
2022/04/26 06:16:37;;;;;;;5.10;3.60;;;16.20;43.60;;;;;;5112966;28;20066;-79
2022/04/26 06:19:03;;;;;;;6.65;4.25;;;16.30;42.80;;;;;;5113283;28;20030;-79
2022/04/26 06:21:29;;;;;;;4.13;3.17;;;16.40;42.40;;;;;;5116990;28;20031;-79
2022/04/26 06:23:55;;;;;;;4.88;3.58;;;16.40;42.30;;;;;;5115480;28;20472;-80
2022/04/26 06:26:20;;;;;;;4.35;3.53;;;16.50;42.20;;;;;;5117123;28;20069;-77
2022/04/26 06:28:46;;;;;;;4.65;3.47;;;16.70;42.20;;;;;;5116870;28;20024;-78
2022/04/26 06:31:12;;;;;;;4.30;3.47;;;16.70;41.00;;;;;;5107435;28;20030;-78
2022/04/26 06:33:38;;;;;;;4.60;3.72;;;16.90;41.30;;;;;;5117299;28;20028;-78
2022/04/26 06:36:04;;;;;;;5.70;3.30;;;17.00;40.10;;;;;;5117677;28;20362;-79
2022/04/26 06:38:30;;;;;;;9.98;3.65;;;17.10;40.70;;;;;;5118293;28;20023;-78
2022/04/26 06:40:56;;;;;;;14.60;4.10;;;17.30;40.80;;;;;;5116039;28;20086;-79
2022/04/26 06:43:22;;;;;;;4.53;3.53;;;17.40;40.50;;;;;;5116661;28;20107;-78
2022/04/26 06:45:47;;;;;;;7.40;3.53;;;17.50;39.40;;;;;;5116903;28;20020;-80
2022/04/26 06:48:15;;;;;;;5.50;3.60;;;17.50;38.90;;;;;;5116164;28;20032;-78
2022/04/26 06:50:41;;;;;;;4.75;3.35;;;17.60;38.80;;;;;;5106063;28;20019;-78
2022/04/26 06:53:07;;;;;;;4.70;3.28;;;17.70;38.80;;;;;;5114892;28;20023;-77
2022/04/26 06:55:34;;;;;;;3.80;3.17;;;17.70;38.60;;;;;;5116433;28;20027;-79
2022/04/26 06:58:00;;;;;;;7.00;3.15;;;17.70;38.80;;;;;;5107388;28;20023;-78
2022/04/26 07:00:26;;;;;;;5.88;3.67;;;17.80;38.20;;;;;;5114509;28;20116;-78
2022/04/26 07:02:53;;;;;;;3.85;2.97;;;17.80;38.00;;;;;;5107177;28;20031;-77
2022/04/26 07:05:19;;;;;;;5.95;3.50;;;17.80;38.00;;;;;;5116168;28;20027;-77
2022/04/26 07:07:46;;;;;;;5.47;3.90;;;17.80;38.20;;;;;;5114806;28;20024;-77
2022/04/26 07:10:12;;;;;;;5.03;3.38;;;17.90;38.30;;;;;;5115958;28;20020;-79
2022/04/26 07:12:38;;;;;;;5.25;3.65;;;17.90;38.00;;;;;;5115963;28;20437;-80
2022/04/26 07:15:04;;;;;;;5.65;3.58;;;17.90;37.90;;;;;;5115996;28;20023;-79
2022/04/26 07:17:30;;;;;;;5.72;3.95;;;18.00;38.00;;;;;;5108156;28;20122;-78
2022/04/26 07:19:58;;;;;;;5.40;3.97;;;18.10;37.50;;;;;;5111408;28;20472;-80
2022/04/26 07:22:25;;;;;;;6.03;4.25;;;18.10;37.50;;;;;;5116149;28;20026;-79
2022/04/26 07:24:51;;;;;;;6.18;3.47;;;18.10;36.30;;;;;;5115929;28;20092;-80
2022/04/26 07:27:18;;;;;;;5.05;3.70;;;18.10;37.00;;;;;;5114501;28;20380;-77
2022/04/26 07:29:51;;;;;;;4.75;3.80;;;18.10;36.70;;;;;;5109724;28;20465;-79
2022/04/26 07:32:17;;;;;;;6.75;4.32;;;18.10;36.50;;;;;;5113516;28;20016;-76
2022/04/26 07:34:45;;;;;;;6.32;4.13;;;18.10;36.60;;;;;;5115650;28;20024;-79
2022/04/26 07:37:11;;;;;;;7.05;4.00;;;18.10;37.00;;;;;;5114330;28;20384;-78
2022/04/26 07:39:37;;;;;;;11.60;6.55;;;18.10;37.30;;;;;;5110692;28;20032;-77
2022/04/26 07:42:04;;;;;;;17.00;10.07;;;18.20;37.50;;;;;;5113029;28;20026;-77
2022/04/26 07:44:31;;;;;;;11.63;6.90;;;18.30;37.30;;;;;;5113908;28;20055;-78
2022/04/26 07:46:58;;;;;;;5.43;4.25;;;18.40;37.10;;;;;;5111055;28;20106;-78
2022/04/26 07:49:26;;;;;;;5.43;3.65;;;18.40;36.50;;;;;;5115327;28;20026;-77
2022/04/26 07:51:52;;;;;;;6.00;3.88;;;18.50;36.30;;;;;;5114006;28;20065;-78
2022/04/26 07:54:18;;;;;;;9.77;3.95;;;18.60;36.90;;;;;;5115194;28;20023;-78
2022/04/26 07:56:44;;;;;;;3.33;2.80;;;18.60;36.90;;;;;;5115114;28;20020;-77
2022/04/26 07:59:10;;;;;;;3.67;2.67;;;18.80;36.40;;;;;;5109607;28;20123;-78
2022/04/26 08:01:36;;;;;;;4.78;3.40;;;18.90;36.30;;;;;;5109277;28;20457;-77
2022/04/26 08:04:03;;;;;;;3.63;3.03;;;19.10;36.20;;;;;;5096470;28;20056;-77
2022/04/26 08:06:29;;;;;;;5.18;4.00;;;19.20;36.10;;;;;;5106809;28;20017;-79
2022/04/26 08:08:55;;;;;;;5.47;3.58;;;19.30;36.10;;;;;;5104838;28;20179;-78
2022/04/26 08:11:22;;;;;;;5.43;3.65;;;19.40;35.30;;;;;;5113631;28;20027;-76
2022/04/26 08:13:48;;;;;;;6.35;3.45;;;19.50;35.10;;;;;;5098632;28;20031;-79
2022/04/26 08:16:14;;;;;;;4.68;3.75;;;19.50;35.60;;;;;;5104412;28;20031;-79
2022/04/26 08:18:40;;;;;;;6.88;4.55;;;19.60;35.50;;;;;;5114513;27;20028;-78
2022/04/26 08:21:07;;;;;;;9.57;5.57;;;19.80;35.60;;;;;;5114622;28;20024;-79
2022/04/26 08:27:22;;;;;;;8.52;5.97;;;19.90;35.50;;;;;;5110308;28;20430;-78
2022/04/26 08:29:14;;;;;;;6.65;5.32;;;20.20;35.10;;;;;;5105260;28;20393;-76
2022/04/26 08:31:41;;;;;;;6.22;4.53;;;20.30;34.50;;;;;;5114388;28;20227;-79
2022/04/26 08:34:06;;;;;;;4.55;4.15;;;20.40;34.90;;;;;;5113805;28;20107;-77
2022/04/26 08:36:32;;;;;;;5.85;4.30;;;20.50;34.70;;;;;;5105164;28;20507;-78
2022/04/26 08:38:59;;;;;;;7.20;5.47;;;20.60;34.70;;;;;;5113745;28;20538;-77
2022/04/26 08:41:24;;;;;;;6.18;4.55;;;20.60;34.40;;;;;;5111176;28;20038;-79
2022/04/26 08:43:50;;;;;;;5.78;4.75;;;20.60;34.50;;;;;;5103203;28;20448;-77
2022/04/26 08:46:16;;;;;;;7.65;5.35;;;20.70;34.40;;;;;;5123197;27;20081;-78
2022/04/26 08:51:29;;;;;;;6.90;5.05;;;20.70;34.40;;;;;;5105828;28;20183;-78
2022/04/26 08:53:55;;;;;;;7.30;5.30;;;20.70;34.10;;;;;;5110713;28;20055;-78
2022/04/26 08:56:21;;;;;;;6.43;5.32;;;20.60;34.10;;;;;;5113237;28;20047;-79
2022/04/26 08:58:47;;;;;;;6.25;4.25;;;20.70;34.30;;;;;;5113524;28;20043;-79
2022/04/26 09:01:18;;;;;;;7.10;4.88;;;20.60;34.00;;;;;;5109690;28;20331;-76
2022/04/26 09:03:59;;;;;;;8.88;5.30;;;20.60;34.20;;;;;;5110379;28;20024;-77
2022/04/26 09:06:43;;;;;;;7.80;4.47;;;20.50;34.30;;;;;;5095762;28;20189;-78
2022/04/26 09:09:18;;;;;;;6.25;4.28;;;20.50;34.60;;;;;;5107063;28;20019;-78
2022/04/26 09:11:44;;;;;;;9.07;5.13;;;20.60;34.50;;;;;;5107796;28;20046;-77
2022/04/26 09:14:36;;;;;;;6.65;4.65;;;20.60;34.50;;;;;;5103198;28;20110;-78
2022/04/26 09:17:08;;;;;;;7.43;5.35;;;20.70;34.60;;;;;;5109896;28;20220;-74
2022/04/26 09:19:47;;;;;;;9.80;5.55;;;20.70;34.20;;;;;;5107992;28;20374;-79
2022/04/26 09:22:25;;;;;;;9.90;5.00;;;20.70;34.20;;;;;;5108637;28;20020;-78
2022/04/26 09:25:05;;;;;;;5.28;4.30;;;20.70;34.40;;;;;;5092976;28;20481;-78
2022/04/26 09:27:37;;;;;;;6.07;4.65;;;20.80;34.40;;;;;;5102168;28;20411;-79
2022/04/26 09:30:10;;;;;;;5.93;4.82;;;20.80;34.40;;;;;;5109517;28;20028;-79
2022/04/26 09:33:02;;;;;;;6.37;4.50;;;21.00;34.60;;;;;;5109712;28;20017;-78
2022/04/26 09:35:29;;;;;;;6.57;4.47;;;21.10;34.90;;;;;;5108655;28;20027;-77
2022/04/26 09:37:55;;;;;;;9.32;4.38;;;21.20;34.50;;;;;;5113321;28;20171;-78
2022/04/26 09:40:26;;;;;;;6.38;4.85;;;21.40;34.30;;;;;;5108149;28;20016;-76
2022/04/26 09:42:52;;;;;;;6.10;4.80;;;21.60;34.10;;;;;;5112345;28;20077;-78
2022/04/26 09:45:17;;;;;;;5.93;4.25;;;21.70;33.60;;;;;;5110784;28;20107;-75
2022/04/26 09:47:45;;;;;;;8.00;4.70;;;21.80;33.60;;;;;;5113019;28;20028;-78
2022/04/26 09:50:12;;;;;;;7.00;4.70;;;22.00;32.90;;;;;;5113129;28;20099;-79
2022/04/26 09:52:39;;;;;;;6.63;4.25;;;22.10;32.50;;;;;;5113046;28;20383;-76
2022/04/26 09:55:10;;;;;;;5.90;5.10;;;22.20;32.80;;;;;;5113755;28;20027;-75
2022/04/26 09:57:38;;;;;;;7.72;5.50;;;22.40;32.60;;;;;;5117436;28;20020;-76
2022/04/26 10:00:06;;;;;;;6.03;5.13;;;22.50;32.30;;;;;;5115881;28;20123;-75
2022/04/26 10:02:35;;;;;;;4.88;4.10;;;22.60;32.20;;;;;;5117123;28;20103;-76
2022/04/26 10:05:06;;;;;;;7.25;3.63;;;22.70;32.30;;;;;;5115781;28;20109;-75
2022/04/26 10:07:45;;;;;;;6.47;3.78;;;22.80;31.70;;;;;;5117262;28;20026;-75
2022/04/26 10:10:13;;;;;;;6.72;4.20;;;22.80;31.70;;;;;;5115743;28;20024;-79
2022/04/26 10:12:41;;;;;;;7.13;3.72;;;22.80;31.20;;;;;;5115996;28;20030;-78
2022/04/26 10:15:07;;;;;;;5.40;3.83;;;22.80;31.40;;;;;;5116950;28;20080;-76
2022/04/26 10:17:33;;;;;;;7.00;4.43;;;22.70;31.50;;;;;;5115608;28;20028;-76
2022/04/26 10:20:03;;;;;;;6.63;3.90;;;22.60;31.60;;;;;;5114750;28;20030;-77
2022/04/26 10:22:52;;;;;;;4.25;3.63;;;22.60;31.50;;;;;;5113612;28;20023;-76
2022/04/26 10:25:21;;;;;;;9.45;5.25;;;22.50;31.80;;;;;;5105937;28;20401;-78
2022/04/26 10:28:23;;;;;;;4.90;3.88;;;22.50;31.90;;;;;;5116591;28;20024;-75
2022/04/26 10:30:56;;;;;;;8.77;4.75;;;22.50;32.30;;;;;;5103491;28;20446;-77
2022/04/26 10:33:37;;;;;;;5.00;4.40;;;22.50;31.80;;;;;;5115339;28;20027;-75
2022/04/26 10:36:21;;;;;;;5.75;4.30;;;22.50;31.30;;;;;;5116441;28;20341;-77
2022/04/26 10:39:24;;;;;;;6.65;5.22;;;22.60;32.00;;;;;;5116414;27;20027;-76
2022/04/26 10:41:51;;;;;;;5.10;4.28;;;22.50;31.80;;;;;;5103539;28;20031;-77
2022/04/26 10:44:16;;;;;;;7.90;5.60;;;22.60;32.10;;;;;;5116307;28;20438;-77
2022/04/26 10:46:44;;;;;;;4.72;4.22;;;22.70;31.80;;;;;;5116455;28;20047;-76
2022/04/26 10:49:25;;;;;;;7.57;5.70;;;22.80;31.90;;;;;;5116432;28;20016;-77
2022/04/26 10:51:52;;;;;;;8.38;5.05;;;23.00;31.90;;;;;;5116343;28;20107;-78
2022/04/26 10:54:45;;;;;;;6.95;4.63;;;23.10;31.60;;;;;;5116246;28;20444;-78
2022/04/26 10:57:11;;;;;;;9.82;5.75;;;23.30;31.70;;;;;;5116285;28;20107;-77
2022/04/26 10:59:45;;;;;;;5.88;5.10;;;23.40;30.70;;;;;;5116735;28;20035;-77
2022/04/26 11:02:13;;;;;;;6.90;5.03;;;23.50;30.80;;;;;;5116004;28;20119;-77
2022/04/26 11:04:40;;;;;;;8.57;5.97;;;23.60;30.80;;;;;;5115887;28;20393;-78
2022/04/26 11:07:18;;;;;;;8.90;5.90;;;23.70;31.00;;;;;;5115630;28;20015;-77
2022/04/26 11:09:49;;;;;;;5.63;4.50;;;23.70;31.00;;;;;;5115962;28;20497;-77
2022/04/26 11:12:29;;;;;;;10.52;5.93;;;23.70;30.50;;;;;;5114620;28;20054;-77
2022/04/26 11:15:00;;;;;;;8.98;6.55;;;23.80;30.90;;;;;;5115993;28;20020;-78
2022/04/26 11:17:27;;;;;;;7.88;6.20;;;23.80;30.90;;;;;;5115950;28;20107;-76
2022/04/26 11:20:05;;;;;;;8.13;6.15;;;23.80;30.90;;;;;;5115825;28;20437;-78
2022/04/26 11:22:31;;;;;;;11.68;6.93;;;24.00;31.10;;;;;;5100560;28;20024;-76
2022/04/26 11:28:00;;;;;;;9.38;6.35;;;24.10;30.60;;;;;;5116017;28;20035;-75
2022/04/26 11:30:48;;;;;;;7.65;5.95;;;24.30;30.50;;;;;;5098343;28;20043;-75
2022/04/26 11:33:19;;;;;;;12.90;6.28;;;24.40;30.60;;;;;;5110882;28;20035;-78
2022/04/26 11:35:50;;;;;;;8.65;6.50;;;24.50;30.30;;;;;;5114150;28;20553;-77
2022/04/26 11:38:16;;;;;;;9.60;6.25;;;24.50;30.10;;;;;;5115410;28;20054;-77
2022/04/26 11:40:48;;;;;;;8.38;6.15;;;24.60;30.10;;;;;;5112650;28;20028;-76
2022/04/26 11:43:16;;;;;;;9.13;7.00;;;24.60;30.20;;;;;;5106069;28;20373;-78
2022/04/26 11:45:44;;;;;;;13.52;7.03;;;24.70;30.10;;;;;;5115221;28;20072;-76
2022/04/26 11:48:17;;;;;;;9.38;6.32;;;24.80;30.00;;;;;;5113674;28;20031;-77
2022/04/26 11:50:45;;;;;;;9.30;6.80;;;24.80;30.00;;;;;;5115097;28;20421;-76
2022/04/26 11:53:16;;;;;;;8.38;6.18;;;24.90;29.80;;;;;;5113884;28;20042;-77
2022/04/26 11:55:52;;;;;;;10.52;6.28;;;24.90;29.80;;;;;;5115206;28;20023;-77
2022/04/26 11:58:27;;;;;;;13.18;5.82;;;24.90;29.80;;;;;;5114920;28;20024;-77
2022/04/26 12:01:11;;;;;;;6.40;4.82;;;24.90;29.80;;;;;;5115028;28;20042;-78
2022/04/26 12:03:49;;;;;;;5.72;4.97;;;24.90;29.60;;;;;;5114928;28;20027;-76
2022/04/26 12:06:19;;;;;;;5.88;4.80;;;24.80;29.40;;;;;;5114845;28;20031;-76
2022/04/26 12:08:53;;;;;;;11.43;5.53;;;24.80;29.60;;;;;;5113609;28;20027;-77
2022/04/26 12:11:35;;;;;;;9.63;5.88;;;24.70;29.80;;;;;;5113623;28;20084;-78
2022/04/26 12:14:02;;;;;;;7.70;4.95;;;24.70;30.00;;;;;;5113572;28;20032;-77
2022/04/26 12:16:29;;;;;;;7.72;5.53;;;24.70;30.60;;;;;;5114431;28;20072;-78
2022/04/26 12:19:00;;;;;;;7.28;5.40;;;24.70;30.00;;;;;;5112776;28;20027;-77
2022/04/26 12:21:27;;;;;;;7.88;6.03;;;24.70;30.40;;;;;;5104227;28;20547;-76
2022/04/26 12:24:13;;;;;;;5.88;5.28;;;24.80;30.20;;;;;;5118009;28;20481;-76
2022/04/26 12:26:58;;;;;;;7.15;5.93;;;24.90;30.40;;;;;;5110309;28;20031;-76
2022/04/26 12:29:25;;;;;;;7.72;5.38;;;25.00;30.20;;;;;;5130177;28;20030;-76
2022/04/26 12:31:51;;;;;;;8.43;6.07;;;25.10;30.30;;;;;;5129988;28;20015;-76
2022/04/26 12:34:19;;;;;;;6.28;5.13;;;25.20;30.60;;;;;;5116582;28;20023;-76
2022/04/26 12:37:04;;;;;;;8.73;6.15;;;25.30;30.00;;;;;;5113423;28;20377;-77
2022/04/26 12:39:45;;;;;;;10.93;5.85;;;25.40;29.70;;;;;;5114258;28;20540;-78
2022/04/26 12:42:12;;;;;;;6.90;5.13;;;25.50;30.10;;;;;;5114091;28;20020;-77
2022/04/26 12:44:55;;;;;;;7.88;6.05;;;25.50;30.80;;;;;;5105724;27;20058;-76
2022/04/26 12:50:31;;;;;;;11.27;6.93;;;25.30;29.80;;;;;;5114452;28;20034;-77
2022/04/26 12:53:08;;;;;;;15.07;7.32;;;25.20;30.00;;;;;;5114175;28;20012;-77
2022/04/26 12:55:41;;;;;;;11.50;6.95;;;24.90;30.20;;;;;;5112700;28;20027;-77
2022/04/26 12:58:12;;;;;;;9.10;6.53;;;24.70;29.90;;;;;;5113963;28;20376;-78
2022/04/26 13:00:43;;;;;;;9.00;6.40;;;24.60;30.10;;;;;;5113858;28;20036;-76
2022/04/26 13:03:11;;;;;;;13.27;6.78;;;24.30;30.50;;;;;;5108726;28;20123;-78
2022/04/26 13:05:54;;;;;;;11.57;6.25;;;24.10;30.90;;;;;;5112530;28;20024;-78
2022/04/26 13:08:23;;;;;;;7.78;5.68;;;23.80;31.00;;;;;;5112760;28;20039;-78
2022/04/26 13:10:49;;;;;;;20.55;7.13;;;23.60;31.30;;;;;;5113754;28;20507;-77
2022/04/26 13:13:16;;;;;;;13.43;7.20;;;23.40;31.80;;;;;;5112407;28;20027;-77
2022/04/26 13:15:42;;;;;;;8.60;6.20;;;23.30;32.20;;;;;;5113691;28;20027;-79
2022/04/26 13:18:10;;;;;;;8.77;5.93;;;23.10;32.60;;;;;;5110851;28;20023;-77
2022/04/26 13:20:37;;;;;;;7.88;6.15;;;22.90;33.50;;;;;;5093028;28;20024;-77
2022/04/26 13:23:03;;;;;;;6.53;5.43;;;22.70;34.40;;;;;;5093150;28;20518;-77
2022/04/26 13:25:29;;;;;;;7.47;5.53;;;22.60;34.50;;;;;;5093170;28;20065;-78
2022/04/26 13:27:55;;;;;;;6.82;5.20;;;22.40;35.10;;;;;;5093154;28;20016;-78
2022/04/26 13:30:22;;;;;;;7.72;5.53;;;22.30;35.70;;;;;;5093358;28;20020;-78
2022/04/26 13:32:48;;;;;;;8.43;5.55;;;22.20;36.30;;;;;;5092947;28;20497;-78
2022/04/26 13:35:13;;;;;;;7.03;4.85;;;22.10;36.90;;;;;;5092831;28;20488;-77
2022/04/26 13:37:39;;;;;;;7.20;5.32;;;21.90;36.70;;;;;;5095656;28;20024;-77
2022/04/26 13:40:07;;;;;;;8.48;6.38;;;21.80;36.60;;;;;;5093043;28;20047;-77
2022/04/26 13:42:35;;;;;;;5.78;4.90;;;21.70;36.80;;;;;;5093199;28;20020;-76
2022/04/26 13:45:01;;;;;;;6.60;5.47;;;21.60;37.50;;;;;;5092814;28;20150;-78
2022/04/26 13:47:27;;;;;;;6.60;5.70;;;21.50;38.10;;;;;;5092944;28;20442;-77
2022/04/26 13:49:53;;;;;;;8.57;5.75;;;21.50;39.40;;;;;;5092707;28;20048;-77
2022/04/26 13:52:20;;;;;;;9.10;5.78;;;21.50;39.40;;;;;;5092908;28;20032;-77
2022/04/26 13:54:47;;;;;;;8.93;5.88;;;21.50;39.10;;;;;;5093637;28;20024;-76
2022/04/26 13:57:13;;;;;;;11.07;6.13;;;21.50;40.00;;;;;;5096338;28;20031;-78
2022/04/26 13:59:39;;;;;;;7.88;6.35;;;21.60;39.80;;;;;;5092535;28;20147;-76
2022/04/26 14:02:06;;;;;;;7.85;6.05;;;21.60;39.80;;;;;;5092724;28;20095;-77
2022/04/26 14:04:32;;;;;;;8.68;7.35;;;21.70;40.30;;;;;;5091174;28;20036;-76
2022/04/26 14:06:58;;;;;;;10.15;8.05;;;21.70;39.80;;;;;;5092642;28;20013;-76
2022/04/26 14:09:24;;;;;;;8.73;7.07;;;21.80;39.50;;;;;;5092552;28;20381;-78
2022/04/26 14:11:51;;;;;;;9.05;7.18;;;21.80;39.40;;;;;;5092656;28;20024;-77
2022/04/26 14:22:33;;;;;;;11.00;7.75;;;22.00;39.90;;;;;;5092880;28;20089;-77
2022/04/26 14:25:02;;;;;;;8.20;6.35;;;22.10;40.90;;;;;;5092303;28;20040;-77
2022/04/26 14:27:28;;;;;;;10.05;7.53;;;22.00;40.80;;;;;;5092412;28;20043;-76
2022/04/26 14:29:54;;;;;;;8.10;6.30;;;22.00;41.20;;;;;;5092615;28;20016;-75
2022/04/26 14:32:20;;;;;;;9.57;6.32;;;21.90;41.20;;;;;;5092397;28;20062;-76
2022/04/26 14:34:46;;;;;;;7.63;6.53;;;21.80;41.10;;;;;;5092865;28;20027;-76
2022/04/26 14:37:12;;;;;;;23.38;7.28;;;21.70;41.20;;;;;;5092638;28;20465;-78
2022/04/26 14:39:38;;;;;;;12.45;8.10;;;21.60;41.30;;;;;;5092598;28;20034;-78
2022/04/26 14:42:05;;;;;;;15.95;9.40;;;21.40;41.60;;;;;;5095884;28;20385;-76
2022/04/26 14:44:31;;;;;;;11.98;8.02;;;21.30;41.80;;;;;;5096264;28;20107;-77
2022/04/26 14:46:57;;;;;;;13.20;7.45;;;21.10;42.20;;;;;;5096215;28;20419;-77
2022/04/26 14:49:23;;;;;;;13.25;8.70;;;21.00;42.90;;;;;;5094929;28;20158;-77
2022/04/26 14:51:49;;;;;;;11.95;7.55;;;20.90;43.20;;;;;;5094834;28;20047;-77
2022/04/26 14:54:15;;;;;;;12.73;8.52;;;20.70;43.50;;;;;;5094778;28;20028;-79
2022/04/26 14:56:40;;;;;;;11.93;8.05;;;20.60;43.90;;;;;;5094779;28;20032;-77
2022/04/26 14:59:07;;;;;;;10.38;7.50;;;20.50;44.30;;;;;;5095902;28;20516;-77
2022/04/26 15:01:34;;;;;;;8.93;6.32;;;20.50;44.30;;;;;;5096065;28;20020;-78
2022/04/26 15:04:00;;;;;;;8.48;7.15;;;20.40;44.60;;;;;;5095696;28;20444;-77
2022/04/26 15:06:26;;;;;;;11.98;7.13;;;20.40;45.00;;;;;;5095886;28;20381;-78
2022/04/26 15:11:36;;;;;;;9.30;6.63;;;20.30;45.20;;;;;;5096247;28;20034;-78
2022/04/26 15:16:46;;;;;;;7.80;6.20;;;20.30;45.40;;;;;;5095967;28;20069;-77
2022/04/26 15:19:14;;;;;;;9.23;6.15;;;20.30;45.40;;;;;;5096020;28;20427;-76
2022/04/26 15:21:44;;;;;;;11.00;8.25;;;20.30;45.70;;;;;;5095783;28;20031;-76
2022/04/26 15:24:12;;;;;;;17.08;10.48;;;20.30;46.10;;;;;;5094221;28;20024;-76
2022/04/26 15:26:38;;;;;;;13.40;9.27;;;20.30;46.00;;;;;;5094334;28;20028;-78
2022/04/26 15:29:05;;;;;;;14.40;9.52;;;20.30;45.80;;;;;;5094274;28;20024;-78
2022/04/26 15:31:32;;;;;;;16.15;10.10;;;20.30;45.60;;;;;;5094174;28;20023;-79
2022/04/26 15:33:58;;;;;;;18.08;11.45;;;20.30;45.90;;;;;;5095465;28;20023;-79
2022/04/26 15:36:24;;;;;;;17.98;10.55;;;20.20;45.60;;;;;;5095362;28;20505;-77
2022/04/26 15:38:54;;;;;;;27.85;14.27;;;20.10;45.90;;;;;;5095430;28;20039;-79
2022/04/26 15:41:23;;;;;;;14.98;8.73;;;20.00;46.20;;;;;;5094057;28;20157;-79
2022/04/26 15:43:50;;;;;;;19.90;10.85;;;19.90;46.30;;;;;;5095260;28;20031;-77
2022/04/26 15:46:15;;;;;;;19.10;11.13;;;19.80;46.70;;;;;;5093851;28;20027;-78
2022/04/26 15:48:47;;;;;;;25.05;13.05;;;19.60;47.10;;;;;;5095112;28;20016;-78
2022/04/26 15:51:16;;;;;;;20.55;11.80;;;19.50;47.70;;;;;;5093554;28;20089;-77
2022/04/26 15:53:42;;;;;;;12.10;7.85;;;19.40;48.30;;;;;;5092911;28;20025;-78
2022/04/26 15:56:08;;;;;;;29.80;14.93;;;19.20;48.50;;;;;;5095185;28;20020;-77
2022/04/26 15:58:34;;;;;;;33.70;13.18;;;19.10;49.10;;;;;;5094702;28;20031;-76
2022/04/26 16:00:59;;;;;;;13.77;8.43;;;19.00;49.40;;;;;;5094883;28;20027;-78
2022/04/26 16:03:25;;;;;;;9.57;7.20;;;18.90;49.80;;;;;;5094761;28;20035;-77
2022/04/26 16:05:51;;;;;;;9.30;6.55;;;18.80;50.00;;;;;;5093556;28;20024;-76
2022/04/26 16:08:17;;;;;;;8.38;5.28;;;18.60;50.20;;;;;;5093526;28;20103;-78
2022/04/26 16:21:39;;;;;;;7.65;4.88;;;18.20;50.50;;;;;;5115186;28;20051;-78
2022/04/26 16:24:05;;;;;;;7.13;4.85;;;18.20;50.60;;;;;;5114613;28;20028;-78
2022/04/26 16:26:34;;;;;;;6.72;5.22;;;18.10;50.80;;;;;;5114734;28;20095;-78
2022/04/26 16:29:01;;;;;;;7.28;5.65;;;18.00;51.00;;;;;;5113532;28;20024;-77
2022/04/26 16:31:30;;;;;;;9.18;6.55;;;18.00;51.70;;;;;;5114591;28;20103;-76
2022/04/26 16:33:57;;;;;;;10.70;7.40;;;18.00;51.70;;;;;;5113359;28;20030;-76
2022/04/26 16:36:25;;;;;;;13.23;7.30;;;17.90;52.20;;;;;;5114526;28;20077;-78
2022/04/26 16:38:52;;;;;;;11.55;7.22;;;17.90;52.30;;;;;;5114869;28;20023;-78
2022/04/26 16:41:19;;;;;;;8.88;6.63;;;17.80;52.60;;;;;;5114785;28;20027;-77
2022/04/26 16:43:46;;;;;;;7.53;6.05;;;17.80;52.80;;;;;;5114413;28;20020;-77
2022/04/26 16:46:14;;;;;;;7.85;5.10;;;17.70;53.00;;;;;;5113116;28;20024;-77
2022/04/26 16:48:40;;;;;;;3.55;2.90;;;17.60;52.90;;;;;;5114495;28;20023;-77
2022/04/26 16:51:06;;;;;;;6.32;2.22;;;17.60;53.20;;;;;;5114493;28;20042;-77
2022/04/26 16:53:31;;;;;;;4.30;1.50;;;17.30;53.60;;;;;;5114427;28;20092;-80
2022/04/26 16:55:57;;;;;;;1.98;1.10;;;17.10;54.60;;;;;;5114992;28;20023;-81
2022/04/26 16:58:23;;;;;;;3.20;1.40;;;16.90;54.50;;;;;;5113858;28;20019;-85
2022/04/26 17:00:49;;;;;;;1.85;1.30;;;16.70;56.90;;;;;;5114614;28;20385;-78
2022/04/26 17:03:15;;;;;;;1.80;1.25;;;16.50;57.00;;;;;;5113515;28;20343;-77
2022/04/26 17:05:47;;;;;;;5.05;1.20;;;16.20;57.30;;;;;;5114075;28;20023;-75